Time;durP1;ratioP1;P1;durP2;ratioP2;P2;SDS_P1;SDS_P2;PMS_P1;PMS_P2;Temp;Humidity;BMP_temperature;BMP_pressure;BME280_temperature;BME280_humidity;BME280_pressure;Samples;Min_cycle;Max_cycle;Signal;HPM_P1;HPM_P2
2022/11/30 00:00:13;;;;;;;;;8.75;7.75;;;;;21.44;37.75;101702.56;5118941;27;45595;-50
2022/11/30 00:02:38;;;;;;;;;11.50;11.50;;;;;21.42;37.99;101699.16;5118700;27;45430;-51
2022/11/30 00:05:04;;;;;;;;;13.75;9.75;;;;;21.40;37.70;101698.34;5118970;27;45278;-48
2022/11/30 00:07:29;;;;;;;;;3.00;3.00;;;;;21.38;37.57;101694.94;5118936;27;45364;-51
2022/11/30 00:09:54;;;;;;;;;9.50;9.50;;;;;21.37;37.79;101693.22;5118834;27;45387;-50
2022/11/30 00:12:20;;;;;;;;;11.33;9.67;;;;;21.33;37.84;101689.03;5118002;27;59593;-50
2022/11/30 00:14:45;;;;;;;;;10.25;9.25;;;;;21.33;38.18;101694.28;5118467;27;45371;-53
2022/11/30 00:17:10;;;;;;;;;10.00;10.00;;;;;21.29;37.61;101689.16;5117327;27;45282;-50
2022/11/30 00:19:36;;;;;;;;;10.00;8.75;;;;;21.29;38.03;101683.88;5118812;27;45304;-49
2022/11/30 00:22:01;;;;;;;;;8.50;7.50;;;;;21.26;38.21;101681.38;5118232;27;50408;-50
2022/11/30 00:24:26;;;;;;;;;9.75;8.50;;;;;21.25;37.54;101684.94;5116928;27;48583;-49
2022/11/30 00:26:52;;;;;;;;;12.67;9.33;;;;;21.24;38.09;101685.00;5117906;27;59050;-48
2022/11/30 00:29:17;;;;;;;;;10.00;9.00;;;;;21.22;37.65;101686.84;5116889;27;45738;-48
2022/11/30 00:31:42;;;;;;;;;13.25;10.75;;;;;21.19;37.82;101679.06;5118235;27;45473;-49
2022/11/30 00:34:08;;;;;;;;;11.00;9.50;;;;;21.18;38.23;101680.88;5118720;27;45862;-52
2022/11/30 00:36:33;;;;;;;;;7.50;7.25;;;;;21.16;37.78;101680.94;5118839;27;45400;-52
2022/11/30 00:38:58;;;;;;;;;10.00;8.75;;;;;21.15;37.55;101676.59;5118412;27;45136;-50
2022/11/30 00:41:24;;;;;;;;;7.67;7.67;;;;;21.13;37.74;101678.44;5117829;27;54777;-51
2022/11/30 00:43:49;;;;;;;;;9.00;9.00;;;;;21.13;37.71;101678.44;5116620;27;46970;-51
2022/11/30 00:46:14;;;;;;;;;8.75;8.25;;;;;21.11;37.86;101679.44;5116744;27;45325;-48
2022/11/30 00:48:40;;;;;;;;;7.75;6.75;;;;;21.11;37.88;101671.53;5118180;27;45282;-48
2022/11/30 00:51:07;;;;;;;;;8.75;8.00;;;;;21.10;38.02;101672.44;5133741;27;46118;-51
2022/11/30 00:53:33;;;;;;;;;9.25;9.00;;;;;21.08;37.96;101669.03;5117990;27;45262;-52
2022/11/30 00:55:58;;;;;;;;;13.00;11.75;;;;;21.06;37.78;101665.59;5118149;27;45266;-51
2022/11/30 00:58:24;;;;;;;;;11.75;9.50;;;;;21.05;37.89;101669.16;5118077;27;45373;-47
2022/11/30 01:00:49;;;;;;;;;9.00;9.00;;;;;21.02;37.97;101662.25;5117721;27;45339;-48
2022/11/30 01:03:15;;;;;;;;;9.00;9.00;;;;;21.01;37.97;101665.81;5117866;27;45450;-51
2022/11/30 01:05:42;;;;;;;;;7.75;7.75;;;;;20.98;38.14;101665.94;5118060;27;45311;-44
2022/11/30 01:08:08;;;;;;;;;10.50;10.00;;;;;20.96;37.73;101668.63;5118340;27;45598;-51
2022/11/30 01:10:36;;;;;;;;;13.00;9.00;;;;;20.95;37.76;101658.16;5117694;27;45233;-48
2022/11/30 01:13:02;;;;;;;;;11.25;8.00;;;;;20.93;37.89;101668.75;5117679;27;45376;-47
2022/11/30 01:15:27;;;;;;;;;8.50;8.00;;;;;20.92;37.96;101674.13;5117791;27;45413;-49
2022/11/30 01:17:52;;;;;;;;;11.75;9.25;;;;;20.91;37.78;101678.50;5117887;27;45426;-49
2022/11/30 01:20:18;;;;;;;;;9.00;7.75;;;;;20.89;37.67;101675.09;5115563;27;53999;-50
2022/11/30 01:22:43;;;;;;;;;10.25;8.25;;;;;20.89;37.85;101680.34;5117562;27;45715;-48
2022/11/30 01:25:09;;;;;;;;;10.25;10.00;;;;;20.87;37.94;101668.19;5117840;27;49103;-48
2022/11/30 01:27:34;;;;;;;;;7.25;7.25;;;;;20.86;37.66;101667.34;5117820;27;45529;-50
2022/11/30 01:30:00;;;;;;;;;7.00;7.00;;;;;20.83;38.02;101664.81;5117152;27;51974;-49
2022/11/30 01:32:26;;;;;;;;;9.75;9.25;;;;;20.85;37.93;101665.63;5117562;27;45329;-50
2022/11/30 01:34:54;;;;;;;;;6.25;6.00;;;;;20.82;38.02;101668.38;5117657;27;45431;-46
2022/11/30 01:37:19;;;;;;;;;9.00;9.00;;;;;20.81;38.04;101670.16;5117594;27;45543;-50
2022/11/30 01:39:45;;;;;;;;;7.00;7.00;;;;;20.77;38.11;101670.38;5116930;27;57933;-52
2022/11/30 01:42:16;;;;;;;;;7.75;7.75;;;;;20.79;37.85;101672.00;5116168;27;45693;-45
2022/11/30 01:44:50;;;;;;;;;9.75;8.50;;;;;20.78;37.66;101672.09;5117749;27;45349;-49
2022/11/30 01:47:18;;;;;;;;;9.75;7.75;;;;;20.77;38.06;101675.66;5117557;27;45311;-51
2022/11/30 01:49:49;;;;;;;;;8.75;8.00;;;;;20.75;37.93;101675.69;5117213;27;46270;-50
2022/11/30 01:52:39;;;;;;;;;6.25;6.25;;;;;20.75;37.85;101682.75;5117176;27;45767;-51
2022/11/30 01:55:09;;;;;;;;;6.25;6.25;;;;;20.72;38.10;101674.94;5117358;27;45213;-50
2022/11/30 01:57:39;;;;;;;;;9.00;8.00;;;;;20.70;38.04;101681.13;5117444;27;45273;-49
2022/11/30 02:00:09;;;;;;;;;8.25;6.50;;;;;20.69;37.92;101668.88;5117000;27;45452;-48
2022/11/30 02:03:01;;;;;;;;;8.25;8.25;;;;;20.68;38.08;101672.44;5119511;27;45835;-48
2022/11/30 02:05:27;;;;;;;;;7.50;7.50;;;;;20.67;38.01;101672.50;5120910;27;45293;-51
2022/11/30 02:07:53;;;;;;;;;7.00;7.00;;;;;20.65;38.04;101662.03;5120944;27;45370;-49
2022/11/30 02:10:27;;;;;;;;;8.00;7.00;;;;;20.66;37.96;101676.06;5119385;27;47166;-48
2022/11/30 02:13:23;;;;;;;;;7.75;7.00;;;;;20.65;37.89;101671.69;5120654;27;45241;-47
2022/11/30 02:16:08;;;;;;;;;7.25;7.25;;;;;20.62;37.91;101671.81;5120740;27;45776;-52
2022/11/30 02:19:01;;;;;;;;;9.00;7.00;;;;;20.61;38.08;101668.34;5120786;27;45448;-46
2022/11/30 02:21:44;;;;;;;;;7.00;7.00;;;;;20.61;37.72;101670.16;5119062;27;48066;-48
2022/11/30 02:24:32;;;;;;;;;7.50;6.50;;;;;20.59;37.86;101672.81;5120684;27;45267;-51
2022/11/30 02:27:09;;;;;;;;;4.50;4.50;;;;;20.58;37.92;101673.75;5120650;27;45285;-50
2022/11/30 02:29:42;;;;;;;;;6.75;6.00;;;;;20.57;37.85;101666.75;5120699;27;45537;-52
2022/11/30 02:32:21;;;;;;;;;7.00;7.00;;;;;20.56;37.69;101667.66;5120351;27;45343;-51
2022/11/30 02:34:56;;;;;;;;;7.75;7.00;;;;;20.55;38.04;101671.25;5120414;27;45804;-48
2022/11/30 02:37:24;;;;;;;;;6.75;6.25;;;;;20.53;37.65;101673.94;5120564;27;45405;-50
2022/11/30 02:39:50;;;;;;;;;6.00;6.00;;;;;20.53;37.68;101667.81;5120555;27;45259;-50
2022/11/30 02:42:15;;;;;;;;;3.75;3.75;;;;;20.51;38.13;101674.94;5120379;27;47543;-48
2022/11/30 02:44:43;;;;;;;;;5.50;5.50;;;;;20.51;38.00;101672.28;5120402;27;45268;-49
2022/11/30 02:47:24;;;;;;;;;7.00;6.00;;;;;20.52;37.61;101671.38;5120264;27;45439;-51
2022/11/30 02:50:11;;;;;;;;;6.25;4.75;;;;;20.49;38.18;101674.13;5120431;27;45397;-51
2022/11/30 02:52:37;;;;;;;;;6.25;6.00;;;;;20.47;37.85;101666.31;5119767;27;46506;-51
2022/11/30 02:55:06;;;;;;;;;5.25;5.00;;;;;20.48;37.88;101669.78;5119862;27;45296;-52
2022/11/30 02:57:32;;;;;;;;;5.25;5.00;;;;;20.47;37.97;101670.69;5120311;27;45516;-52
2022/11/30 02:59:59;;;;;;;;;5.00;5.00;;;;;20.48;37.54;101675.03;5120080;27;45420;-53
2022/11/30 03:02:24;;;;;;;;;4.75;4.00;;;;;20.46;37.92;101671.63;5135806;27;47581;-52
2022/11/30 03:04:50;;;;;;;;;5.00;5.00;;;;;20.45;37.78;101669.94;5118349;27;45387;-53
2022/11/30 03:07:15;;;;;;;;;4.50;4.50;;;;;20.44;37.62;101674.31;5120106;27;45611;-49
2022/11/30 03:09:40;;;;;;;;;6.00;5.00;;;;;20.44;38.19;101673.47;5119517;27;47923;-50
2022/11/30 03:12:06;;;;;;;;;4.00;4.00;;;;;20.41;37.69;101677.06;5119146;27;46199;-50
2022/11/30 03:14:31;;;;;;;;;3.75;3.50;;;;;20.42;37.86;101680.59;5119658;27;45291;-50
2022/11/30 03:16:56;;;;;;;;;2.75;2.75;;;;;20.42;37.59;101680.59;5119727;27;45428;-49
2022/11/30 03:19:22;;;;;;;;;4.00;4.00;;;;;20.39;37.70;101679.78;5119608;27;45312;-49
2022/11/30 03:21:47;;;;;;;;;6.00;4.75;;;;;20.38;37.95;101678.06;5119731;27;46873;-49
2022/11/30 03:24:13;;;;;;;;;6.50;5.25;;;;;20.38;37.91;101685.13;5119526;27;45391;-50
2022/11/30 03:26:38;;;;;;;;;6.00;4.00;;;;;20.37;37.93;101684.25;5119809;27;45293;-51
2022/11/30 03:29:03;;;;;;;;;5.75;4.00;;;;;20.35;37.72;101691.34;5119580;27;45278;-51
2022/11/30 03:31:29;;;;;;;;;4.75;3.00;;;;;20.35;37.43;101685.25;5119180;27;45331;-49
2022/11/30 03:33:54;;;;;;;;;3.00;3.00;;;;;20.33;37.70;101690.59;5119284;27;45422;-51
2022/11/30 03:36:19;;;;;;;;;4.00;4.00;;;;;20.33;37.63;101693.22;5119437;27;45298;-50
2022/11/30 03:38:46;;;;;;;;;4.25;4.25;;;;;20.33;37.91;101697.59;5119813;27;45514;-49
2022/11/30 03:41:15;;;;;;;;;5.75;4.25;;;;;20.32;38.12;101690.63;5118847;27;45535;-47
2022/11/30 03:43:41;;;;;;;;;3.25;3.25;;;;;20.32;38.07;101695.88;5119099;27;45323;-52
2022/11/30 03:46:06;;;;;;;;;4.00;4.00;;;;;20.31;37.58;101705.59;5119223;27;45184;-48
2022/11/30 03:48:32;;;;;;;;;6.25;4.50;;;;;20.29;37.79;101696.88;5119317;27;45689;-51
2022/11/30 03:50:57;;;;;;;;;5.75;4.00;;;;;20.28;37.84;101697.78;5118941;27;45504;-49
2022/11/30 03:53:24;;;;;;;;;7.25;5.00;;;;;20.29;37.72;101706.53;5118874;27;45336;-50
2022/11/30 03:55:55;;;;;;;;;6.25;4.25;;;;;20.28;37.69;101710.13;5119390;27;45483;-49
2022/11/30 03:58:21;;;;;;;;;3.00;3.00;;;;;20.27;38.07;101713.66;5117811;27;45552;-51
2022/11/30 04:00:47;;;;;;;;;5.50;4.25;;;;;20.25;37.71;101711.06;5119056;27;46622;-51
2022/11/30 04:03:12;;;;;;;;;4.00;2.75;;;;;20.26;37.92;101717.22;5118888;27;45326;-52
2022/11/30 04:05:38;;;;;;;;;3.00;3.00;;;;;20.24;38.15;101720.75;5118781;27;45286;-51
2022/11/30 04:08:03;;;;;;;;;4.00;4.00;;;;;20.23;38.17;101718.16;5118909;27;45573;-50
2022/11/30 04:10:28;;;;;;;;;5.00;4.00;;;;;20.22;37.79;101721.75;5118658;27;46308;-49
2022/11/30 04:12:54;;;;;;;;;3.00;3.00;;;;;20.21;37.91;101723.50;5117279;27;45439;-48
2022/11/30 04:15:19;;;;;;;;;3.00;3.00;;;;;20.21;37.73;101725.28;5119116;27;45329;-46
2022/11/30 04:17:44;;;;;;;;;5.50;4.00;;;;;20.21;37.99;101725.28;5118878;27;45341;-47
2022/11/30 04:20:10;;;;;;;;;4.00;4.00;;;;;20.18;37.81;101728.03;5117706;27;56798;-50
2022/11/30 04:22:35;;;;;;;;;3.00;3.00;;;;;20.18;37.79;101735.94;5118235;27;45411;-49
2022/11/30 04:25:01;;;;;;;;;4.00;4.00;;;;;20.18;37.69;101735.94;5117566;27;45290;-48
2022/11/30 04:27:27;;;;;;;;;4.00;4.00;;;;;20.17;37.87;101731.59;5118655;27;45320;-50
2022/11/30 04:29:52;;;;;;;;;3.50;3.00;;;;;20.17;37.98;101739.47;5118262;27;46250;-49
2022/11/30 04:32:18;;;;;;;;;2.00;2.00;;;;;20.13;37.83;101733.50;5118640;27;45321;-50
2022/11/30 04:34:43;;;;;;;;;3.00;3.00;;;;;20.14;37.74;101739.59;5118491;27;45273;-52
2022/11/30 04:37:08;;;;;;;;;2.50;2.50;;;;;20.15;38.03;101743.94;5118625;27;45176;-50
2022/11/30 04:39:34;;;;;;;;;3.33;3.00;;;;;20.13;37.96;101737.88;5117310;27;66993;-53
2022/11/30 04:42:00;;;;;;;;;1.50;1.50;;;;;20.12;37.90;101739.66;5118114;27;45236;-52
2022/11/30 04:44:25;;;;;;;;;3.00;3.00;;;;;20.12;37.79;101738.81;5118407;27;45194;-50
2022/11/30 04:46:50;;;;;;;;;3.25;3.25;;;;;20.09;37.96;101737.16;5118761;27;45506;-53
2022/11/30 04:49:16;;;;;;;;;1.50;1.00;;;;;20.11;37.68;101747.63;5118115;27;45264;-50
2022/11/30 04:51:41;;;;;;;;;3.75;3.00;;;;;20.10;38.03;101748.53;5117660;27;54188;-52
2022/11/30 04:54:07;;;;;;;;;3.00;3.00;;;;;20.09;37.56;101745.03;5116848;27;45261;-52
2022/11/30 04:56:32;;;;;;;;;2.25;2.25;;;;;20.08;37.85;101760.00;5118400;27;45614;-50
2022/11/30 04:59:01;;;;;;;;;2.00;2.00;;;;;20.09;37.84;101760.84;5117892;27;46617;-53
2022/11/30 05:01:27;;;;;;;;;3.00;3.00;;;;;20.06;37.73;101759.19;5117984;27;45893;-52
2022/11/30 05:03:52;;;;;;;;;3.00;3.00;;;;;20.06;37.40;101759.19;5118369;27;45365;-51
2022/11/30 05:06:17;;;;;;;;;2.00;2.00;;;;;20.05;37.47;101752.22;5118022;27;45258;-52
2022/11/30 05:08:43;;;;;;;;;2.00;2.00;;;;;20.06;37.34;101753.91;5117733;27;46535;-49
2022/11/30 05:11:08;;;;;;;;;2.00;2.00;;;;;20.05;37.91;101757.47;5116034;27;58868;-52
2022/11/30 05:13:33;;;;;;;;;2.25;2.25;;;;;20.04;37.47;101757.53;5117840;27;45346;-52
2022/11/30 05:15:59;;;;;;;;;3.00;3.00;;;;;20.04;37.67;101741.75;5118138;27;45699;-48
2022/11/30 05:18:25;;;;;;;;;2.50;2.00;;;;;20.02;37.63;101754.94;5117782;27;46327;-51
2022/11/30 05:20:54;;;;;;;;;2.25;2.25;;;;;20.02;37.61;101747.06;5117971;27;45720;-52
2022/11/30 05:23:20;;;;;;;;;2.00;2.00;;;;;20.02;37.41;101744.41;5117995;27;45638;-50
2022/11/30 05:25:46;;;;;;;;;2.25;1.50;;;;;20.00;37.30;101743.66;5117867;27;45651;-53
2022/11/30 05:28:12;;;;;;;;;2.00;2.00;;;;;20.00;37.42;101742.78;5117505;27;46424;-51
2022/11/30 05:30:39;;;;;;;;;3.50;1.25;;;;;19.99;37.81;101749.81;5117648;27;45337;-50
2022/11/30 05:33:04;;;;;;;;;1.00;1.00;;;;;19.98;37.98;101750.75;5117612;27;45332;-52
2022/11/30 05:35:30;;;;;;;;;2.00;2.00;;;;;19.96;37.86;101747.31;5134605;27;45449;-49
2022/11/30 05:37:55;;;;;;;;;2.00;2.00;;;;;19.97;37.58;101748.16;5121275;27;46127;-46
2022/11/30 05:40:20;;;;;;;;;1.00;1.00;;;;;19.95;37.43;101753.47;5120874;27;47759;-49
2022/11/30 05:42:45;;;;;;;;;1.00;1.00;;;;;19.96;37.22;101751.69;5121441;27;45390;-53
2022/11/30 05:45:11;;;;;;;;;3.00;2.00;;;;;19.94;37.31;101749.13;5121273;27;45217;-49
2022/11/30 05:47:36;;;;;;;;;2.00;2.00;;;;;19.93;37.46;101756.19;5121084;27;46447;-50
2022/11/30 05:50:02;;;;;;;;;2.00;2.00;;;;;19.91;37.84;101741.34;5120802;27;49570;-52
2022/11/30 05:52:27;;;;;;;;;1.75;1.75;;;;;19.90;37.53;101743.13;5121100;27;45313;-49
2022/11/30 05:54:52;;;;;;;;;2.00;1.00;;;;;19.90;37.09;101742.25;5121480;27;45665;-48
2022/11/30 05:57:18;;;;;;;;;3.00;2.00;;;;;19.88;37.34;101737.06;5120591;27;47129;-48
2022/11/30 05:59:43;;;;;;;;;1.75;1.75;;;;;19.89;37.75;101740.56;5120832;27;45325;-49
2022/11/30 06:02:08;;;;;;;;;2.00;2.00;;;;;19.87;37.49;101745.88;5120954;27;45274;-44
2022/11/30 06:04:34;;;;;;;;;2.25;1.00;;;;;19.84;37.61;101742.47;5120946;27;45539;-46
2022/11/30 06:06:59;;;;;;;;;2.25;1.00;;;;;19.83;37.22;101741.63;5120597;27;46162;-47
2022/11/30 06:09:25;;;;;;;;;1.25;1.25;;;;;19.80;37.49;101736.47;5120935;27;45321;-49
2022/11/30 06:11:50;;;;;;;;;3.00;1.00;;;;;19.77;37.25;101741.84;5120748;27;45366;-49
2022/11/30 06:14:16;;;;;;;;;2.00;2.00;;;;;19.76;37.71;101740.13;5120193;27;51563;-47
2022/11/30 06:16:41;;;;;;;;;1.50;1.50;;;;;19.74;37.45;101737.56;5120418;27;45460;-49
2022/11/30 06:19:06;;;;;;;;;1.75;1.75;;;;;19.73;37.46;101741.09;5120260;27;45381;-48
2022/11/30 06:21:32;;;;;;;;;3.00;1.75;;;;;19.73;37.46;101737.63;5120285;27;45372;-49
2022/11/30 06:23:57;;;;;;;;;2.00;1.00;;;;;19.71;37.33;101732.41;5121036;27;45598;-47
2022/11/30 06:26:22;;;;;;;;;1.00;1.00;;;;;19.70;37.35;101733.31;5120302;27;45487;-47
2022/11/30 06:28:48;;;;;;;;;3.25;2.50;;;;;19.70;37.71;101743.84;5120273;27;45348;-50
2022/11/30 06:31:13;;;;;;;;;2.00;2.00;;;;;19.69;37.31;101736.88;5120281;27;45372;-47
2022/11/30 06:33:38;;;;;;;;;2.00;2.00;;;;;19.65;37.53;101739.66;5120567;27;45271;-48
2022/11/30 06:36:04;;;;;;;;;3.25;2.75;;;;;19.62;37.59;101735.38;5120145;27;45947;-48
2022/11/30 06:38:30;;;;;;;;;2.00;2.00;;;;;19.64;37.53;101749.34;5120140;27;45401;-44
2022/11/30 06:41:05;;;;;;;;;2.00;1.00;;;;;19.65;37.45;101743.19;5120616;27;45403;-50
2022/11/30 06:43:38;;;;;;;;;3.50;3.00;;;;;19.64;37.52;101744.09;5120451;27;45419;-51
2022/11/30 06:46:05;;;;;;;;;2.00;2.00;;;;;19.66;37.58;101744.91;5119903;27;46082;-46
2022/11/30 06:48:30;;;;;;;;;4.00;2.00;;;;;19.64;37.33;101741.47;5119017;27;45682;-50
2022/11/30 06:50:56;;;;;;;;;1.25;1.25;;;;;19.65;37.56;101753.69;5120603;27;45337;-49
2022/11/30 06:53:21;;;;;;;;;2.00;2.00;;;;;19.65;37.46;101753.69;5120142;27;45637;-51
2022/11/30 06:55:47;;;;;;;;;1.00;1.00;;;;;19.65;37.59;101753.69;5119725;27;46441;-52
2022/11/30 06:58:12;;;;;;;;;3.50;2.00;;;;;19.64;37.68;101757.25;5119795;27;45234;-46
2022/11/30 07:00:37;;;;;;;;;4.25;3.00;;;;;19.63;37.57;101748.47;5119778;27;45206;-51
2022/11/30 07:03:04;;;;;;;;;1.00;1.00;;;;;19.64;37.51;101754.59;5120141;27;45312;-50
2022/11/30 07:05:33;;;;;;;;;2.00;2.00;;;;;19.62;37.66;101759.91;5119785;27;45488;-52
2022/11/30 07:07:59;;;;;;;;;4.00;3.00;;;;;19.62;37.85;101753.78;5119805;27;45460;-51
2022/11/30 07:10:24;;;;;;;;;1.75;1.75;;;;;19.62;37.66;101764.31;5119770;27;45264;-51
2022/11/30 07:12:49;;;;;;;;;3.00;1.75;;;;;19.61;37.82;101758.22;5119950;27;45568;-48
2022/11/30 07:15:15;;;;;;;;;2.00;2.00;;;;;19.61;37.71;101762.59;5119534;27;45275;-50
2022/11/30 07:17:40;;;;;;;;;3.00;2.50;;;;;19.60;38.00;101760.88;5119432;27;45253;-48
2022/11/30 07:20:06;;;;;;;;;2.00;2.00;;;;;19.61;37.40;101768.72;5119390;27;45245;-49
2022/11/30 07:22:31;;;;;;;;;1.00;1.00;;;;;19.62;37.55;101764.31;5118650;27;45365;-44
2022/11/30 07:27:41;;;;;;;;;3.25;3.00;;;;;19.61;38.02;101768.72;5119371;27;45200;-50
2022/11/30 07:30:07;;;;;;;;;2.00;2.00;;;;;19.59;37.61;101767.94;5119422;27;45208;-48
2022/11/30 07:32:33;;;;;;;;;2.00;2.00;;;;;19.61;38.07;101767.84;5119627;27;45641;-44
2022/11/30 07:34:58;;;;;;;;;2.00;2.00;;;;;19.60;37.65;101772.28;5119538;27;45686;-49
2022/11/30 07:37:24;;;;;;;;;2.00;2.00;;;;;19.61;37.87;101778.38;5119177;27;45565;-49
2022/11/30 07:39:52;;;;;;;;;2.00;2.00;;;;;19.59;37.74;101774.94;5119126;27;45346;-42
2022/11/30 07:42:17;;;;;;;;;2.75;2.75;;;;;19.60;38.06;101782.78;5118119;27;45348;-40
2022/11/30 07:44:43;;;;;;;;;2.00;2.00;;;;;19.61;37.81;101788.91;5117232;27;60680;-42
2022/11/30 07:47:08;;;;;;;;;2.00;2.00;;;;;19.60;37.69;101792.44;5119196;27;45359;-41
2022/11/30 07:49:33;;;;;;;;;2.75;2.75;;;;;19.60;37.69;101792.44;5118884;27;49482;-43
2022/11/30 07:51:59;;;;;;;;;3.25;2.00;;;;;19.59;38.09;101791.59;5119706;27;45361;-43
2022/11/30 07:54:24;;;;;;;;;2.75;2.25;;;;;19.61;37.96;101796.78;5118950;27;45497;-41
2022/11/30 07:56:50;;;;;;;;;2.00;2.00;;;;;19.64;37.73;101799.31;5116450;27;45497;-43
2022/11/30 07:59:15;;;;;;;;;2.00;2.00;;;;;19.66;37.67;101801.88;5116249;27;53842;-45
2022/11/30 08:01:40;;;;;;;;;4.00;2.00;;;;;19.69;38.28;101801.78;5117479;27;45562;-42
2022/11/30 08:04:06;;;;;;;;;2.50;2.50;;;;;19.70;38.02;101798.22;5118289;27;46549;-45
2022/11/30 08:06:31;;;;;;;;;2.75;2.75;;;;;19.74;38.33;101803.31;5119119;27;45325;-43
2022/11/30 08:08:59;;;;;;;;;3.75;2.00;;;;;19.77;38.04;101805.84;5118708;27;45242;-43
2022/11/30 08:11:29;;;;;;;;;2.00;2.00;;;;;19.80;38.01;101807.50;5134703;27;45337;-42
2022/11/30 08:13:55;;;;;;;;;3.75;2.00;;;;;19.82;38.13;101817.94;5117968;27;46493;-43
2022/11/30 08:16:23;;;;;;;;;3.00;1.75;;;;;19.86;38.30;101809.09;5118409;27;45241;-41
2022/11/30 08:18:49;;;;;;;;;2.00;2.00;;;;;19.86;38.01;101819.59;5118558;27;45307;-44
2022/11/30 08:21:17;;;;;;;;;2.25;2.25;;;;;19.87;38.22;101810.81;5118269;27;45463;-42
2022/11/30 08:23:46;;;;;;;;;4.00;3.25;;;;;19.91;38.05;101822.91;5118249;27;45597;-41
2022/11/30 08:26:17;;;;;;;;;3.00;3.00;;;;;19.92;38.04;101820.25;5118300;27;45793;-42
2022/11/30 08:28:45;;;;;;;;;2.00;2.00;;;;;19.93;38.24;101815.81;5118398;27;45465;-43
2022/11/30 08:31:22;;;;;;;;;1.75;1.75;;;;;19.95;38.17;101819.25;5118464;27;45493;-42
2022/11/30 08:33:47;;;;;;;;;2.00;2.00;;;;;19.96;38.33;101820.09;5118037;27;45462;-41
2022/11/30 08:58:58;;;;;;;;;3.25;3.25;;;;;20.01;37.79;101824.28;5319558;22;45305;-48
2022/11/30 09:01:25;;;;;;;;;4.67;4.67;;;;;20.01;37.77;101819.00;5055318;28;61281;-49
2022/11/30 09:03:56;;;;;;;;;4.50;4.00;;;;;20.02;38.22;101828.63;5061942;28;45340;-55
2022/11/30 09:06:27;;;;;;;;;4.00;4.00;;;;;20.01;37.89;101826.06;5082688;27;44854;-52
2022/11/30 09:08:54;;;;;;;;;4.25;4.00;;;;;20.00;37.64;101835.75;5061340;28;46347;-54
2022/11/30 09:11:26;;;;;;;;;5.00;4.00;;;;;20.01;38.26;101828.69;5056229;28;45450;-55
2022/11/30 09:13:53;;;;;;;;;3.00;3.00;;;;;20.00;38.03;101827.84;5056928;28;45280;-55
2022/11/30 09:16:20;;;;;;;;;4.25;4.25;;;;;20.02;37.62;101836.53;5059248;28;45555;-55
2022/11/30 09:18:46;;;;;;;;;5.25;4.00;;;;;20.02;37.96;101841.78;5058147;28;46237;-52
2022/11/30 09:21:15;;;;;;;;;4.25;4.00;;;;;20.03;37.81;101846.13;5059908;28;45395;-55
2022/11/30 09:23:41;;;;;;;;;4.50;2.00;;;;;20.04;37.80;101845.22;5057770;28;45353;-53
2022/11/30 09:26:10;;;;;;;;;4.00;3.00;;;;;20.05;38.08;101852.22;5060056;28;45258;-54
2022/11/30 09:28:36;;;;;;;;;3.25;3.25;;;;;20.02;38.22;101846.19;5059429;28;45532;-55
2022/11/30 09:31:06;;;;;;;;;4.00;4.00;;;;;20.06;37.70;101845.19;5078804;28;45411;-57
2022/11/30 09:33:32;;;;;;;;;3.50;3.00;;;;;20.06;37.73;101856.56;5072461;28;45247;-54
2022/11/30 09:36:04;;;;;;;;;5.25;4.50;;;;;20.05;37.92;101849.56;5058717;28;45382;-55
2022/11/30 09:38:30;;;;;;;;;4.75;4.75;;;;;20.06;37.60;101853.94;5059402;28;45329;-48
2022/11/30 09:40:58;;;;;;;;;4.00;4.00;;;;;20.07;37.67;101855.66;5058720;28;45363;-55
2022/11/30 09:43:52;;;;;;;;;6.75;6.00;;;;;20.07;37.71;101858.28;5059348;28;45430;-52
2022/11/30 09:46:33;;;;;;;;;5.50;5.50;;;;;20.10;37.49;101849.41;5060104;28;45221;-51
2022/11/30 09:49:09;;;;;;;;;6.00;4.25;;;;;20.11;37.91;101850.28;5057419;28;47284;-53
2022/11/30 09:51:46;;;;;;;;;4.00;4.00;;;;;20.11;37.79;101845.84;5056055;28;45428;-52
2022/11/30 09:54:19;;;;;;;;;4.00;4.00;;;;;20.14;37.89;101842.25;5080739;28;44709;-52
2022/11/30 09:56:45;;;;;;;;;5.75;4.50;;;;;20.14;37.86;101850.13;5075969;28;44619;-52
2022/11/30 09:59:20;;;;;;;;;5.25;5.00;;;;;20.13;37.96;101844.03;5062962;28;45279;-55
2022/11/30 10:01:47;;;;;;;;;4.00;4.00;;;;;20.15;37.43;101849.22;5076139;28;45235;-52
2022/11/30 10:04:27;;;;;;;;;5.50;5.50;;;;;20.14;37.61;101847.50;5088289;28;45278;-53
2022/11/30 10:07:11;;;;;;;;;4.75;4.75;;;;;20.16;37.75;101850.94;5063340;28;45594;-53
2022/11/30 10:09:40;;;;;;;;;4.00;4.00;;;;;20.15;37.90;101849.22;5056584;28;45468;-53
2022/11/30 10:12:18;;;;;;;;;4.50;4.50;;;;;20.13;37.57;101845.78;5056205;28;45287;-50
2022/11/30 10:14:58;;;;;;;;;4.25;4.25;;;;;20.14;37.50;101844.88;5058519;28;45943;-54
2022/11/30 10:17:53;;;;;;;;;6.00;6.00;;;;;20.13;38.04;101844.03;5057911;28;45464;-53
2022/11/30 10:20:54;;;;;;;;;4.00;4.00;;;;;20.13;37.94;101844.03;5063748;28;46238;-54
2022/11/30 10:23:59;;;;;;;;;3.25;3.25;;;;;20.14;37.97;101844.88;5071951;28;45329;-54
2022/11/30 10:26:37;;;;;;;;;6.00;5.50;;;;;20.14;37.84;101840.50;5060012;28;45374;-55
2022/11/30 10:29:18;;;;;;;;;4.50;4.50;;;;;20.14;37.51;101842.25;5060919;28;45613;-54
2022/11/30 10:31:46;;;;;;;;;7.00;5.50;;;;;20.15;37.95;101836.94;5059142;28;45510;-52
2022/11/30 10:34:19;;;;;;;;;4.00;4.00;;;;;20.18;37.92;101833.31;5058928;28;45328;-51
2022/11/30 10:37:15;;;;;;;;;6.00;5.00;;;;;20.19;38.15;101833.25;5074220;28;45411;-56
2022/11/30 10:39:58;;;;;;;;;6.75;4.75;;;;;20.29;38.13;101833.78;5057071;28;45502;-53
2022/11/30 10:42:29;;;;;;;;;4.25;4.25;;;;;20.35;37.71;101838.78;5058765;28;46110;-54
2022/11/30 10:45:11;;;;;;;;;6.50;5.75;;;;;20.37;38.06;101831.69;5063961;28;45704;-52
2022/11/30 10:47:45;;;;;;;;;8.00;5.00;;;;;20.46;38.14;101829.63;5060003;28;45365;-56
2022/11/30 10:50:15;;;;;;;;;4.00;4.00;;;;;20.50;38.18;101831.22;5059181;28;45431;-53
2022/11/30 10:52:51;;;;;;;;;7.50;5.00;;;;;20.55;37.96;101824.00;5059077;28;46164;-58
2022/11/30 10:55:22;;;;;;;;;5.00;5.00;;;;;20.62;37.52;101825.47;5059837;28;45178;-55
2022/11/30 10:57:52;;;;;;;;;5.50;4.25;;;;;20.66;37.79;101824.44;5074583;28;45313;-54
2022/11/30 11:00:18;;;;;;;;;6.00;6.00;;;;;20.70;37.67;101819.91;5075614;28;45418;-52
2022/11/30 11:02:49;;;;;;;;;7.75;6.50;;;;;20.73;38.02;101818.91;5063118;28;45968;-53
2022/11/30 11:05:27;;;;;;;;;4.00;2.25;;;;;20.74;37.35;101821.50;5067851;28;45303;-56
2022/11/30 11:08:17;;;;;;;;;7.75;5.50;;;;;20.73;37.38;101819.75;5065583;28;45302;-51
2022/11/30 11:10:46;;;;;;;;;2.00;2.00;;;;;20.73;37.47;101816.28;5069876;28;45480;-57
2022/11/30 11:13:17;;;;;;;;;7.00;5.75;;;;;20.73;37.69;101819.75;5069639;28;45715;-55
2022/11/30 11:15:59;;;;;;;;;6.25;4.75;;;;;20.72;37.98;101825.09;5065911;28;45467;-56
2022/11/30 11:18:27;;;;;;;;;4.50;4.50;;;;;20.70;37.64;101822.53;5074309;28;45296;-55
2022/11/30 11:21:03;;;;;;;;;5.00;5.00;;;;;20.72;37.61;101814.56;5072405;28;45245;-56
2022/11/30 11:23:40;;;;;;;;;7.50;5.75;;;;;20.69;37.90;101810.28;5081489;28;45340;-56
2022/11/30 11:26:14;;;;;;;;;4.00;3.75;;;;;20.68;37.37;101814.66;5062659;28;45708;-56
2022/11/30 11:28:44;;;;;;;;;8.00;6.00;;;;;20.68;37.50;101811.19;5062490;28;45333;-55
2022/11/30 11:31:32;;;;;;;;;5.75;4.75;;;;;20.68;37.58;101824.38;5060850;28;45359;-56
2022/11/30 11:33:57;;;;;;;;;12.25;6.50;;;;;20.66;37.94;101811.25;5061295;28;45393;-53
2022/11/30 11:36:32;;;;;;;;;8.25;8.00;;;;;20.67;37.96;101809.47;5062547;28;45230;-52
2022/11/30 11:38:59;;;;;;;;;11.00;9.00;;;;;20.62;37.72;101803.53;5062263;28;45460;-56
2022/11/30 11:41:36;;;;;;;;;5.50;5.50;;;;;20.67;37.75;101818.22;5061613;28;45553;-55
2022/11/30 11:44:07;;;;;;;;;7.50;7.00;;;;;20.65;37.82;101814.81;5060266;28;46391;-55
2022/11/30 11:46:36;;;;;;;;;6.00;6.00;;;;;20.65;37.75;101808.69;5058626;28;45476;-55
2022/11/30 11:49:16;;;;;;;;;5.00;5.00;;;;;20.61;37.46;101797.41;5071359;28;45224;-53
2022/11/30 11:51:44;;;;;;;;;7.25;6.50;;;;;20.61;37.74;101796.56;5077650;28;44742;-51
2022/11/30 11:54:34;;;;;;;;;6.50;6.50;;;;;20.60;37.87;101794.84;5061987;28;46230;-57
2022/11/30 11:57:00;;;;;;;;;5.50;4.25;;;;;20.61;37.37;101801.84;5070655;28;45360;-51